Time;durP1;ratioP1;P1;durP2;ratioP2;P2;SDS_P1;SDS_P2;PMS_P1;PMS_P2;Temp;Humidity;BMP_temperature;BMP_pressure;BME280_temperature;BME280_humidity;BME280_pressure;Samples;Min_cycle;Max_cycle;Signal;HPM_P1;HPM_P2
2021/04/02 04:00:45;;;;;;;7.73;4.73;;;4.00;96.30;;;;;;5920186;23;20481;-82
2021/04/02 04:03:13;;;;;;;4.00;3.30;;;4.00;96.30;;;;;;4965119;28;20806;-79
2021/04/02 04:05:39;;;;;;;1.87;1.73;;;4.00;96.30;;;;;;4954193;29;20407;-78
2021/04/02 04:08:08;;;;;;;4.20;2.20;;;3.80;96.30;;;;;;4953697;29;20394;-77
2021/04/02 04:10:35;;;;;;;1.97;1.87;;;3.70;96.30;;;;;;4954015;28;20954;-77
2021/04/02 04:13:02;;;;;;;2.33;1.70;;;3.50;96.30;;;;;;4954646;29;20410;-78
2021/04/02 04:15:28;;;;;;;2.50;2.20;;;3.50;96.30;;;;;;4954049;29;20414;-78
2021/04/02 04:17:55;;;;;;;2.33;2.13;;;3.40;96.30;;;;;;4953540;29;20410;-77
2021/04/02 04:20:23;;;;;;;2.20;1.97;;;3.40;96.30;;;;;;4953950;28;20469;-77
2021/04/02 04:22:50;;;;;;;3.40;2.40;;;3.30;96.30;;;;;;4953938;29;20901;-76
2021/04/02 04:25:22;;;;;;;2.97;2.67;;;3.30;96.30;;;;;;4953940;28;20465;-77
2021/04/02 04:27:48;;;;;;;2.60;2.40;;;3.30;96.30;;;;;;4956484;29;20949;-77
2021/04/02 04:30:15;;;;;;;2.40;2.20;;;3.30;96.30;;;;;;4957419;28;20508;-76
2021/04/02 04:32:41;;;;;;;1.90;1.70;;;3.20;96.30;;;;;;4957645;28;20940;-77
2021/04/02 04:35:13;;;;;;;2.40;2.20;;;3.20;96.30;;;;;;4957753;29;20417;-76
2021/04/02 04:37:41;;;;;;;1.93;1.73;;;3.20;96.30;;;;;;4955907;29;20556;-77
2021/04/02 04:40:08;;;;;;;6.63;2.40;;;3.20;96.30;;;;;;4957616;28;20414;-77
2021/04/02 04:42:35;;;;;;;2.37;2.10;;;3.10;96.30;;;;;;4957598;29;20921;-77
2021/04/02 04:45:04;;;;;;;2.73;2.43;;;3.10;96.30;;;;;;4957640;28;20427;-77
2021/04/02 04:47:30;;;;;;;2.20;2.00;;;3.10;96.30;;;;;;4955353;29;20425;-77
2021/04/02 04:49:56;;;;;;;2.33;2.03;;;3.10;96.30;;;;;;4957419;29;20548;-77
2021/04/02 04:52:21;;;;;;;3.03;2.73;;;3.10;96.30;;;;;;4957438;28;20659;-77
2021/04/02 04:54:51;;;;;;;2.30;2.10;;;3.10;96.30;;;;;;4972664;28;20206;-77
2021/04/02 04:57:19;;;;;;;2.70;2.10;;;3.10;96.30;;;;;;4976246;28;20175;-78
2021/04/02 04:59:46;;;;;;;2.33;2.13;;;3.10;96.30;;;;;;4976620;28;20777;-77
2021/04/02 05:02:12;;;;;;;2.47;2.27;;;3.10;96.30;;;;;;4988950;28;20512;-78
2021/04/02 05:04:39;;;;;;;2.53;2.33;;;3.10;96.30;;;;;;4976834;28;20778;-77
2021/04/02 05:07:07;;;;;;;2.30;2.00;;;3.10;96.30;;;;;;4976060;28;20406;-77
2021/04/02 05:09:33;;;;;;;3.03;2.50;;;3.10;96.30;;;;;;4976150;28;20519;-77
2021/04/02 05:11:59;;;;;;;2.50;2.03;;;3.10;96.30;;;;;;4976480;28;20929;-78
2021/04/02 05:14:25;;;;;;;2.33;2.13;;;3.10;96.30;;;;;;4976459;28;20414;-77
2021/04/02 05:16:51;;;;;;;2.40;2.17;;;3.10;96.30;;;;;;4975224;28;20413;-77
2021/04/02 05:19:18;;;;;;;2.40;2.20;;;3.10;96.30;;;;;;4975720;28;20856;-78
2021/04/02 05:21:45;;;;;;;2.80;2.30;;;3.20;96.30;;;;;;4976287;28;20438;-78
2021/04/02 05:24:11;;;;;;;2.97;2.70;;;3.20;96.30;;;;;;4976220;28;20452;-79
2021/04/02 05:26:37;;;;;;;3.20;2.60;;;3.20;96.30;;;;;;4974827;28;20428;-78
2021/04/02 05:29:03;;;;;;;3.17;2.87;;;3.30;96.30;;;;;;4975559;28;20449;-78
2021/04/02 05:31:30;;;;;;;2.40;2.20;;;3.30;96.30;;;;;;4990932;28;20690;-77
2021/04/02 05:33:56;;;;;;;2.50;2.30;;;3.40;96.30;;;;;;4976019;28;20417;-78
2021/04/02 05:36:22;;;;;;;2.83;2.60;;;3.50;96.30;;;;;;4976084;28;20414;-78
2021/04/02 05:38:47;;;;;;;3.23;2.60;;;3.50;96.30;;;;;;4974085;28;20429;-78
2021/04/02 05:41:17;;;;;;;2.50;2.30;;;3.50;96.30;;;;;;4975968;28;20217;-78
2021/04/02 05:43:48;;;;;;;2.37;2.17;;;3.50;96.30;;;;;;4975823;28;20220;-78
2021/04/02 05:46:15;;;;;;;1.93;1.83;;;3.60;96.30;;;;;;4956735;28;20411;-78
2021/04/02 05:48:43;;;;;;;3.90;2.40;;;3.70;96.30;;;;;;4971685;28;20449;-78
2021/04/02 05:51:10;;;;;;;2.63;2.10;;;3.70;96.30;;;;;;4974887;28;20488;-79
2021/04/02 05:53:36;;;;;;;1.97;1.87;;;3.60;96.30;;;;;;4981241;28;20410;-79
2021/04/02 05:56:03;;;;;;;2.77;2.07;;;3.70;96.30;;;;;;4980564;28;20505;-78
2021/04/02 05:58:29;;;;;;;2.20;2.00;;;3.60;96.30;;;;;;4976237;28;20409;-80
2021/04/02 06:00:56;;;;;;;2.30;2.10;;;3.60;96.30;;;;;;4975749;28;20457;-79
2021/04/02 06:03:22;;;;;;;2.17;1.87;;;3.60;96.30;;;;;;4974264;28;20437;-80
2021/04/02 06:05:48;;;;;;;1.80;1.70;;;3.50;96.30;;;;;;4975475;28;20420;-79
2021/04/02 06:08:14;;;;;;;2.10;1.90;;;3.50;96.30;;;;;;4974993;28;20418;-80
2021/04/02 06:10:40;;;;;;;2.10;1.90;;;3.50;96.30;;;;;;4975410;28;20190;-80
2021/04/02 06:13:05;;;;;;;3.77;2.20;;;3.50;96.30;;;;;;4975531;28;20779;-81
2021/04/02 06:15:33;;;;;;;2.70;2.20;;;3.50;96.30;;;;;;4975482;28;20178;-79
2021/04/02 06:17:59;;;;;;;5.63;2.40;;;3.60;96.30;;;;;;4974789;28;20571;-79
2021/04/02 06:20:27;;;;;;;6.67;2.43;;;3.60;96.30;;;;;;4975002;28;20481;-80
2021/04/02 06:23:10;;;;;;;2.50;2.30;;;3.60;96.30;;;;;;4975321;28;20513;-80
2021/04/02 06:25:50;;;;;;;2.40;2.20;;;3.60;96.30;;;;;;4975422;28;20402;-79
2021/04/02 06:28:24;;;;;;;2.63;2.00;;;3.60;96.30;;;;;;4974361;28;21119;-80
2021/04/02 06:31:01;;;;;;;2.47;2.23;;;3.60;96.30;;;;;;4975136;28;20437;-80
2021/04/02 06:33:37;;;;;;;2.30;2.10;;;3.50;96.30;;;;;;4973604;28;20787;-80
2021/04/02 06:36:24;;;;;;;158.10;6.33;;;3.50;96.30;;;;;;4974981;28;20461;-80
2021/04/02 06:39:09;;;;;;;146.23;6.47;;;3.50;96.30;;;;;;4974298;28;20410;-80
2021/04/02 06:41:36;;;;;;;126.43;5.73;;;3.40;96.30;;;;;;4968824;28;20597;-80
2021/04/02 06:44:04;;;;;;;404.93;13.33;;;3.20;96.30;;;;;;4964340;28;20418;-80
2021/04/02 06:46:34;;;;;;;345.33;10.20;;;3.20;96.30;;;;;;4968801;28;20429;-80
2021/04/02 06:49:12;;;;;;;220.73;6.53;;;3.20;96.30;;;;;;4958140;28;21113;-81
2021/04/02 06:51:39;;;;;;;257.47;7.70;;;3.10;96.30;;;;;;4977836;28;20451;-82
2021/04/02 06:54:06;;;;;;;397.20;10.00;;;3.00;96.30;;;;;;4978054;28;20414;-81
2021/04/02 06:56:34;;;;;;;134.90;6.20;;;3.00;96.30;;;;;;4979494;28;20429;-83
2021/04/02 06:59:02;;;;;;;407.07;11.13;;;2.90;96.30;;;;;;4975436;28;20448;-82
2021/04/02 07:01:30;;;;;;;471.73;12.80;;;3.00;96.30;;;;;;4980174;28;20503;-81
2021/04/02 07:03:56;;;;;;;404.87;11.50;;;3.10;96.30;;;;;;4978304;28;20417;-81
2021/04/02 07:06:23;;;;;;;227.07;7.70;;;3.10;96.30;;;;;;4978329;28;20464;-81
2021/04/02 07:08:50;;;;;;;316.67;10.83;;;3.10;96.30;;;;;;4977720;28;20265;-81
2021/04/02 07:11:17;;;;;;;105.80;5.33;;;3.10;96.30;;;;;;4978904;28;20434;-79
2021/04/02 07:13:51;;;;;;;79.63;4.63;;;3.00;96.30;;;;;;4975921;28;20422;-79
2021/04/02 07:16:22;;;;;;;37.10;3.70;;;3.00;96.30;;;;;;4976291;28;20801;-78
2021/04/02 07:18:49;;;;;;;34.67;4.07;;;3.10;96.30;;;;;;4977700;28;20476;-80
2021/04/02 07:21:16;;;;;;;34.83;4.33;;;3.10;96.30;;;;;;4977743;28;20445;-79
2021/04/02 07:23:42;;;;;;;36.63;3.87;;;3.00;96.30;;;;;;4978000;28;20440;-82
2021/04/02 07:26:09;;;;;;;21.43;3.40;;;3.10;96.30;;;;;;4980858;28;20413;-82
2021/04/02 07:28:37;;;;;;;13.30;3.00;;;3.10;96.30;;;;;;4976087;28;20631;-81
2021/04/02 07:31:04;;;;;;;11.63;3.13;;;3.20;96.30;;;;;;4976905;28;20795;-80
2021/04/02 07:33:31;;;;;;;5.13;3.23;;;3.20;96.30;;;;;;4975909;28;20409;-79
2021/04/02 07:36:01;;;;;;;4.00;2.33;;;3.20;96.30;;;;;;4975738;28;20414;-80
2021/04/02 07:38:30;;;;;;;5.33;2.80;;;3.30;96.30;;;;;;4972997;28;20430;-80
2021/04/02 07:40:56;;;;;;;3.53;2.60;;;3.30;96.30;;;;;;4974156;28;20442;-81
2021/04/02 07:43:28;;;;;;;3.30;3.07;;;3.30;96.30;;;;;;4959805;28;20437;-82
2021/04/02 07:46:12;;;;;;;5.20;2.80;;;3.30;96.30;;;;;;4972612;28;20413;-79
2021/04/02 07:48:41;;;;;;;3.43;3.13;;;3.30;96.30;;;;;;4968384;28;20453;-79
2021/04/02 07:51:17;;;;;;;3.13;2.80;;;3.30;96.30;;;;;;4967130;28;20452;-79
2021/04/02 07:53:45;;;;;;;4.70;3.10;;;3.40;96.30;;;;;;4976268;28;20428;-79
2021/04/02 07:56:16;;;;;;;3.60;3.30;;;3.50;96.30;;;;;;4966432;28;20418;-79
2021/04/02 07:58:50;;;;;;;3.20;2.90;;;3.50;96.30;;;;;;4972574;28;20441;-79
2021/04/02 08:01:21;;;;;;;2.97;2.67;;;3.60;96.30;;;;;;4954493;28;20466;-80
2021/04/02 08:03:49;;;;;;;3.27;2.57;;;3.60;96.30;;;;;;4966239;28;20948;-79
2021/04/02 08:06:36;;;;;;;4.57;3.20;;;3.60;96.30;;;;;;4973313;28;20425;-78
2021/04/02 08:09:06;;;;;;;2.90;2.70;;;3.70;96.30;;;;;;4958917;28;20470;-78
2021/04/02 08:11:44;;;;;;;2.93;2.63;;;3.70;96.30;;;;;;4966397;28;20536;-78
2021/04/02 08:14:13;;;;;;;2.57;2.37;;;3.70;96.30;;;;;;4972187;28;20425;-78
2021/04/02 08:16:38;;;;;;;2.93;2.63;;;3.70;96.30;;;;;;4973228;28;20441;-78
2021/04/02 08:19:07;;;;;;;3.00;2.60;;;3.60;96.30;;;;;;4972129;28;20904;-79
2021/04/02 08:21:37;;;;;;;3.63;2.57;;;3.60;96.30;;;;;;4973179;28;20205;-78
2021/04/02 08:24:05;;;;;;;3.23;2.83;;;3.50;96.30;;;;;;4972361;28;20480;-78
2021/04/02 08:26:32;;;;;;;3.50;2.77;;;3.50;96.30;;;;;;4970142;28;20511;-78
2021/04/02 08:28:59;;;;;;;3.90;2.83;;;3.50;96.30;;;;;;4970386;28;20458;-77
2021/04/02 08:31:25;;;;;;;3.27;2.17;;;3.60;96.30;;;;;;4972954;28;21129;-78
2021/04/02 08:33:55;;;;;;;3.90;2.70;;;3.60;96.30;;;;;;4971994;28;20528;-77
2021/04/02 08:36:22;;;;;;;2.90;2.23;;;3.60;96.30;;;;;;4972972;28;20174;-78
2021/04/02 08:38:49;;;;;;;1.90;1.80;;;3.60;96.30;;;;;;4972422;28;20409;-78
2021/04/02 08:41:16;;;;;;;1.90;1.50;;;3.50;96.30;;;;;;4971976;28;20442;-78
2021/04/02 08:43:41;;;;;;;3.53;2.00;;;3.50;96.30;;;;;;4972940;28;20456;-77
2021/04/02 08:46:07;;;;;;;1.80;1.67;;;3.70;96.30;;;;;;4972891;28;20413;-78
2021/04/02 08:48:32;;;;;;;3.20;2.10;;;3.80;96.30;;;;;;4972228;28;20411;-78
2021/04/02 08:50:58;;;;;;;1.67;1.50;;;3.90;96.30;;;;;;4972834;28;20264;-78
2021/04/02 08:53:23;;;;;;;1.73;1.63;;;3.80;96.30;;;;;;4973030;28;20174;-78
2021/04/02 08:55:49;;;;;;;1.67;1.57;;;3.90;96.30;;;;;;4971436;28;20175;-78
2021/04/02 08:58:14;;;;;;;1.60;1.50;;;3.90;96.30;;;;;;4971922;28;20166;-78
2021/04/02 09:00:41;;;;;;;2.40;1.77;;;4.00;96.30;;;;;;4971283;28;20218;-79
2021/04/02 09:03:06;;;;;;;2.37;2.03;;;4.00;96.30;;;;;;4962662;28;20182;-78
2021/04/02 09:05:33;;;;;;;2.57;1.83;;;4.20;96.30;;;;;;4953534;28;20915;-79
2021/04/02 09:07:59;;;;;;;1.67;1.57;;;4.30;96.30;;;;;;4970073;28;20210;-79
2021/04/02 09:10:26;;;;;;;1.87;1.70;;;4.30;96.30;;;;;;4972098;28;20461;-80
2021/04/02 09:12:53;;;;;;;2.40;2.20;;;4.40;96.30;;;;;;4974194;28;20409;-80
2021/04/02 09:15:26;;;;;;;2.10;1.90;;;4.40;96.30;;;;;;4975699;28;20476;-79
2021/04/02 09:17:52;;;;;;;1.80;1.70;;;4.60;96.30;;;;;;4974817;28;20417;-80
2021/04/02 09:20:18;;;;;;;2.03;1.83;;;4.80;96.30;;;;;;4975063;28;20417;-79
2021/04/02 09:22:45;;;;;;;1.73;1.63;;;4.90;96.30;;;;;;4975668;28;20329;-79
2021/04/02 09:25:17;;;;;;;1.93;1.83;;;4.40;96.30;;;;;;4976066;28;21232;-78
2021/04/02 09:27:43;;;;;;;2.80;1.77;;;4.30;96.30;;;;;;4975445;28;20453;-79
2021/04/02 09:30:09;;;;;;;2.97;2.30;;;4.20;96.30;;;;;;4974893;28;20536;-80
2021/04/02 09:32:36;;;;;;;2.60;2.40;;;4.30;96.30;;;;;;4976289;28;20249;-80
2021/04/02 09:35:04;;;;;;;2.27;2.07;;;4.50;96.30;;;;;;4975869;28;20418;-79
2021/04/02 09:37:30;;;;;;;2.33;2.13;;;4.90;96.30;;;;;;4973282;28;20410;-79
2021/04/02 09:40:03;;;;;;;2.20;2.00;;;5.00;96.30;;;;;;4973882;28;20515;-77
2021/04/02 09:42:32;;;;;;;3.20;2.67;;;4.90;96.30;;;;;;4975652;28;20883;-78
2021/04/02 09:45:09;;;;;;;3.63;2.40;;;4.90;96.30;;;;;;4975019;28;20847;-77
2021/04/02 09:47:43;;;;;;;4.30;2.37;;;4.90;96.30;;;;;;4975496;28;20429;-77
2021/04/02 09:50:10;;;;;;;3.20;2.77;;;4.90;96.30;;;;;;4975528;28;20540;-77
2021/04/02 09:52:39;;;;;;;13.77;7.00;;;5.00;96.30;;;;;;4975570;28;20424;-78
2021/04/02 09:55:06;;;;;;;11.60;7.70;;;4.80;96.30;;;;;;4975627;28;20863;-78
2021/04/02 09:57:32;;;;;;;10.60;6.63;;;4.60;96.30;;;;;;4974942;28;20406;-78
2021/04/02 09:59:58;;;;;;;8.87;4.50;;;4.50;96.30;;;;;;4975626;28;20424;-78
2021/04/02 10:02:23;;;;;;;4.03;3.00;;;4.30;96.30;;;;;;4975529;28;20224;-78
2021/04/02 10:04:49;;;;;;;6.03;3.50;;;4.10;96.30;;;;;;4975883;28;20182;-77
2021/04/02 10:07:14;;;;;;;13.27;5.70;;;4.10;96.30;;;;;;4974706;28;20189;-78
2021/04/02 10:09:40;;;;;;;9.23;5.23;;;4.00;96.30;;;;;;4975432;28;20693;-79
2021/04/02 10:12:06;;;;;;;6.33;3.90;;;4.10;96.30;;;;;;4975972;28;20195;-81
2021/04/02 10:14:32;;;;;;;7.97;4.60;;;4.00;96.30;;;;;;4975519;28;20233;-76
2021/04/02 10:16:58;;;;;;;5.93;3.60;;;4.10;96.30;;;;;;4975189;28;20409;-76
2021/04/02 10:19:23;;;;;;;6.03;3.53;;;4.20;96.30;;;;;;4974647;28;20209;-76
2021/04/02 10:21:49;;;;;;;5.03;3.70;;;4.20;96.30;;;;;;4975011;28;20470;-76
2021/04/02 10:24:14;;;;;;;4.57;3.53;;;4.10;96.30;;;;;;4973691;28;20698;-76
2021/04/02 10:26:42;;;;;;;5.30;3.30;;;4.10;96.30;;;;;;4973820;28;20617;-75
2021/04/02 10:29:08;;;;;;;4.20;3.10;;;4.10;96.30;;;;;;4973241;28;20210;-76
2021/04/02 10:31:35;;;;;;;4.00;3.37;;;4.10;96.30;;;;;;4974926;28;20439;-76
2021/04/02 10:34:01;;;;;;;7.30;3.20;;;4.00;96.30;;;;;;4974963;28;20261;-75
2021/04/02 10:36:27;;;;;;;3.03;2.80;;;3.80;96.30;;;;;;4975035;28;20484;-76
2021/04/02 10:38:52;;;;;;;3.30;2.70;;;3.60;96.30;;;;;;4972912;28;20251;-75
2021/04/02 10:41:18;;;;;;;4.57;3.50;;;3.50;96.30;;;;;;4974738;28;20198;-75
2021/04/02 10:43:44;;;;;;;4.23;3.47;;;3.50;96.30;;;;;;4974391;28;20182;-75
2021/04/02 10:46:11;;;;;;;3.93;3.00;;;3.40;96.30;;;;;;4973570;28;20796;-76
2021/04/02 10:48:37;;;;;;;3.50;3.20;;;3.40;96.30;;;;;;4973333;28;20205;-75
2021/04/02 10:51:03;;;;;;;7.03;3.97;;;3.40;96.30;;;;;;4972863;28;20446;-75
2021/04/02 10:53:29;;;;;;;8.00;4.03;;;3.50;96.30;;;;;;4974118;28;20209;-75
2021/04/02 10:56:00;;;;;;;35.80;4.10;;;3.60;96.30;;;;;;4972871;28;20417;-76
2021/04/02 10:58:25;;;;;;;11.93;3.63;;;3.70;96.30;;;;;;4972951;28;20406;-75
2021/04/02 11:00:51;;;;;;;6.20;3.87;;;3.50;96.30;;;;;;4973912;28;20815;-76
2021/04/02 11:03:17;;;;;;;3.93;3.53;;;3.70;96.30;;;;;;4972747;28;20182;-76
2021/04/02 11:05:42;;;;;;;6.80;3.90;;;4.20;96.30;;;;;;4971746;28;20505;-75
2021/04/02 11:08:08;;;;;;;6.60;4.40;;;4.30;96.30;;;;;;4973116;28;20166;-76
2021/04/02 11:10:33;;;;;;;5.97;4.17;;;4.40;96.30;;;;;;4973170;28;20211;-76
2021/04/02 11:12:59;;;;;;;5.80;4.07;;;4.40;96.30;;;;;;4971947;28;20201;-76
2021/04/02 11:15:25;;;;;;;4.80;4.30;;;4.60;96.30;;;;;;4972358;28;20202;-76
2021/04/02 11:17:52;;;;;;;5.30;4.00;;;4.70;96.30;;;;;;4971445;28;20182;-75
2021/04/02 11:20:20;;;;;;;9.57;6.53;;;4.80;96.30;;;;;;4974020;28;20185;-77
2021/04/02 11:22:46;;;;;;;8.43;6.53;;;5.20;96.30;;;;;;4973876;28;20766;-78
2021/04/02 11:25:13;;;;;;;10.47;8.10;;;5.50;96.30;;;;;;4988003;28;20425;-77
2021/04/02 11:27:40;;;;;;;14.37;9.40;;;5.90;96.30;;;;;;4973544;28;20782;-77
2021/04/02 11:30:08;;;;;;;15.33;9.80;;;6.10;96.30;;;;;;4973917;28;20503;-78
2021/04/02 11:32:34;;;;;;;11.97;8.20;;;6.80;96.30;;;;;;4973860;28;20437;-76
2021/04/02 11:35:00;;;;;;;9.43;6.43;;;7.80;96.30;;;;;;4973611;28;20410;-76
2021/04/02 11:37:26;;;;;;;9.90;7.17;;;8.70;96.30;;;;;;4973066;28;20414;-76
2021/04/02 11:39:51;;;;;;;6.90;5.57;;;9.20;96.30;;;;;;4988652;28;20185;-76
2021/04/02 11:42:17;;;;;;;5.63;5.03;;;8.90;96.30;;;;;;4973743;28;20674;-76
2021/04/02 11:44:42;;;;;;;6.07;4.57;;;8.80;96.30;;;;;;4973780;28;20193;-76
2021/04/02 11:47:08;;;;;;;4.90;4.40;;;8.80;96.30;;;;;;4972925;28;20182;-77
2021/04/02 11:49:35;;;;;;;4.70;4.23;;;8.60;96.30;;;;;;4973536;28;20225;-76
2021/04/02 11:52:00;;;;;;;5.40;4.90;;;8.10;96.30;;;;;;4973554;28;20245;-76
2021/04/02 11:54:26;;;;;;;8.10;5.27;;;7.80;96.30;;;;;;4973206;28;20417;-76
2021/04/02 11:56:52;;;;;;;9.67;5.80;;;7.40;96.30;;;;;;4973539;28;20170;-76
2021/04/02 11:59:18;;;;;;;7.83;6.43;;;7.20;96.30;;;;;;4973028;28;20187;-76
2021/04/02 12:01:44;;;;;;;8.00;6.63;;;7.30;96.30;;;;;;4973231;28;20453;-76
2021/04/02 12:04:10;;;;;;;8.80;6.80;;;7.10;96.30;;;;;;4973398;28;20182;-77
2021/04/02 12:06:36;;;;;;;7.93;6.50;;;7.00;96.30;;;;;;4973293;28;20229;-76
2021/04/02 12:09:03;;;;;;;7.13;6.23;;;6.90;96.30;;;;;;4972713;28;20198;-76
2021/04/02 12:11:29;;;;;;;10.13;7.20;;;6.70;96.30;;;;;;4973238;28;20554;-76
2021/04/02 12:13:55;;;;;;;9.30;7.07;;;6.00;96.30;;;;;;4973516;28;20869;-76
2021/04/02 12:16:20;;;;;;;9.27;8.27;;;5.50;96.30;;;;;;4973353;28;20697;-76
2021/04/02 12:18:46;;;;;;;10.47;8.20;;;5.60;96.30;;;;;;4972639;28;20186;-75
2021/04/02 12:21:11;;;;;;;9.93;8.67;;;5.50;96.30;;;;;;4973298;28;20281;-76
2021/04/02 12:23:37;;;;;;;10.97;7.80;;;5.60;96.30;;;;;;4973190;28;20186;-78
2021/04/02 12:26:03;;;;;;;8.80;7.40;;;5.50;96.30;;;;;;4988227;28;20545;-76
2021/04/02 12:28:29;;;;;;;8.53;7.70;;;5.50;96.30;;;;;;4987377;28;20414;-76
2021/04/02 12:30:54;;;;;;;8.40;6.93;;;5.70;96.30;;;;;;4973089;28;20194;-76
2021/04/02 12:33:20;;;;;;;7.60;6.80;;;5.80;96.30;;;;;;4973087;28;20410;-76
2021/04/02 12:35:45;;;;;;;8.40;7.50;;;5.90;96.30;;;;;;4973217;28;20184;-75
2021/04/02 12:38:11;;;;;;;8.07;7.27;;;6.00;96.30;;;;;;4972598;28;20180;-76
2021/04/02 12:40:38;;;;;;;7.57;6.27;;;6.00;96.30;;;;;;4973128;28;20198;-76
2021/04/02 12:43:05;;;;;;;6.87;6.17;;;6.10;96.30;;;;;;4973166;28;20409;-75
2021/04/02 12:45:31;;;;;;;7.10;6.40;;;6.10;96.30;;;;;;4973148;28;20940;-76
2021/04/02 12:47:58;;;;;;;6.67;5.20;;;6.40;96.30;;;;;;4974158;28;20456;-75
2021/04/02 12:50:25;;;;;;;6.90;5.73;;;6.10;96.30;;;;;;4976828;28;20468;-76
2021/04/02 12:52:52;;;;;;;6.17;5.47;;;5.90;96.30;;;;;;4977131;28;20955;-75
2021/04/02 12:55:21;;;;;;;6.30;5.70;;;5.90;96.30;;;;;;4976696;28;20405;-74
2021/04/02 12:57:47;;;;;;;6.63;5.47;;;6.10;96.30;;;;;;4976237;28;20556;-76
2021/04/02 13:00:19;;;;;;;6.03;5.53;;;6.20;96.30;;;;;;4976190;28;20520;-75
2021/04/02 13:02:44;;;;;;;7.63;6.23;;;5.90;96.30;;;;;;4991695;28;20698;-75
2021/04/02 13:05:11;;;;;;;6.17;5.57;;;5.80;96.30;;;;;;4976666;28;20544;-75
2021/04/02 13:07:37;;;;;;;9.87;6.20;;;5.80;96.30;;;;;;4974836;28;20186;-76
2021/04/02 13:10:04;;;;;;;7.10;6.50;;;6.00;96.30;;;;;;4976390;28;20457;-76
2021/04/02 13:12:29;;;;;;;6.70;6.10;;;6.40;96.30;;;;;;4976279;28;20182;-76
2021/04/02 13:14:55;;;;;;;6.67;6.10;;;6.50;96.30;;;;;;4976521;28;20401;-74
2021/04/02 13:17:20;;;;;;;9.03;6.37;;;6.40;96.30;;;;;;4974989;28;20193;-75
2021/04/02 13:19:46;;;;;;;8.33;7.47;;;6.30;96.30;;;;;;4976343;28;20633;-75
2021/04/02 13:22:11;;;;;;;8.07;7.27;;;6.20;96.30;;;;;;4976382;28;20206;-75
2021/04/02 13:24:38;;;;;;;8.07;7.20;;;6.00;96.30;;;;;;4976135;28;20209;-75
2021/04/02 13:27:05;;;;;;;7.83;7.13;;;6.00;96.30;;;;;;4975774;28;20170;-77
2021/04/02 13:29:30;;;;;;;8.63;7.73;;;6.10;96.30;;;;;;4975865;28;20467;-75
2021/04/02 13:31:56;;;;;;;7.40;6.70;;;6.10;96.30;;;;;;4976213;28;20426;-76
2021/04/02 13:34:22;;;;;;;7.73;6.93;;;6.10;96.30;;;;;;4976109;28;20661;-76
2021/04/02 13:36:47;;;;;;;8.63;7.63;;;6.00;96.30;;;;;;4975916;28;21047;-76
2021/04/02 13:39:13;;;;;;;7.83;6.27;;;6.00;96.30;;;;;;4975344;28;20193;-76
2021/04/02 13:41:39;;;;;;;7.20;6.60;;;6.00;96.30;;;;;;4975715;28;20229;-77
2021/04/02 13:44:06;;;;;;;7.50;6.53;;;5.90;96.30;;;;;;4990937;28;20736;-77
2021/04/02 13:46:31;;;;;;;6.80;6.10;;;5.90;96.30;;;;;;4975752;28;20178;-76
2021/04/02 13:48:57;;;;;;;7.03;6.17;;;6.10;96.30;;;;;;4974837;28;20453;-76
2021/04/02 13:51:23;;;;;;;8.23;6.90;;;6.20;96.30;;;;;;4990594;28;20194;-77
2021/04/02 13:53:48;;;;;;;7.70;7.00;;;6.40;96.30;;;;;;4975662;28;20694;-76
2021/04/02 13:56:14;;;;;;;6.70;6.10;;;6.60;96.30;;;;;;4975388;28;20791;-77
2021/04/02 13:58:39;;;;;;;6.77;6.07;;;6.90;96.30;;;;;;4973451;28;20174;-76
2021/04/02 14:01:05;;;;;;;7.20;6.13;;;7.00;96.30;;;;;;4975806;28;20218;-77
2021/04/02 14:03:31;;;;;;;6.53;5.90;;;7.20;96.30;;;;;;4991132;28;20182;-76
2021/04/02 14:05:57;;;;;;;6.53;5.93;;;7.10;96.30;;;;;;4976227;28;20186;-76
2021/04/02 14:08:23;;;;;;;6.50;5.90;;;6.90;96.30;;;;;;4975425;28;20444;-76
2021/04/02 14:10:48;;;;;;;6.80;5.40;;;6.70;96.30;;;;;;4975692;28;20277;-76
2021/04/02 14:13:14;;;;;;;5.73;5.23;;;6.60;96.30;;;;;;4976075;28;20493;-76
2021/04/02 14:15:40;;;;;;;6.40;5.20;;;6.60;96.30;;;;;;4976134;28;20202;-76
2021/04/02 14:18:07;;;;;;;6.13;5.63;;;6.60;96.30;;;;;;4990091;28;20179;-76
2021/04/02 14:20:37;;;;;;;5.97;5.30;;;5.90;96.30;;;;;;4975711;28;20182;-76
2021/04/02 14:23:03;;;;;;;7.10;6.50;;;5.70;96.30;;;;;;4975751;28;20410;-76
2021/04/02 14:25:29;;;;;;;6.00;5.50;;;5.60;96.30;;;;;;4974195;28;20406;-75
2021/04/02 14:27:57;;;;;;;6.33;5.43;;;5.50;96.30;;;;;;4975302;28;20906;-76
2021/04/02 14:30:27;;;;;;;6.70;6.10;;;5.40;96.30;;;;;;4975107;28;20516;-76
2021/04/02 14:32:53;;;;;;;7.77;6.93;;;5.40;96.30;;;;;;4974682;28;20464;-77
2021/04/02 14:35:20;;;;;;;7.10;6.50;;;5.60;96.30;;;;;;4975552;28;20492;-76
2021/04/02 14:37:47;;;;;;;6.30;5.80;;;5.70;96.30;;;;;;4974779;28;20406;-76
2021/04/02 14:40:20;;;;;;;7.93;7.13;;;5.90;96.30;;;;;;4975622;28;20477;-77
2021/04/02 14:42:46;;;;;;;8.13;6.63;;;5.80;96.30;;;;;;4975600;28;20406;-75
2021/04/02 14:45:14;;;;;;;8.70;7.90;;;5.90;96.30;;;;;;4974102;28;20441;-76
2021/04/02 14:47:39;;;;;;;9.13;8.23;;;5.90;96.30;;;;;;4974963;28;20401;-76
2021/04/02 14:50:07;;;;;;;9.60;8.60;;;5.80;96.30;;;;;;4975121;28;20461;-76
2021/04/02 14:52:33;;;;;;;8.73;7.83;;;5.60;96.30;;;;;;4974821;28;20202;-76
2021/04/02 14:54:59;;;;;;;10.13;7.40;;;5.60;96.30;;;;;;4975057;28;20429;-77
2021/04/02 14:57:24;;;;;;;9.43;8.37;;;5.50;96.30;;;;;;4974548;28;20178;-75
2021/04/02 14:59:50;;;;;;;9.40;7.70;;;5.50;96.30;;;;;;4974978;28;20186;-75
2021/04/02 15:02:15;;;;;;;7.40;6.70;;;5.50;96.30;;;;;;4974936;28;20256;-76
2021/04/02 15:04:41;;;;;;;12.37;5.87;;;5.20;96.30;;;;;;4975094;28;20264;-78
2021/04/02 15:07:07;;;;;;;8.10;7.00;;;5.20;96.30;;;;;;4972949;28;20624;-76
2021/04/02 15:09:32;;;;;;;7.23;6.63;;;5.10;96.30;;;;;;4973416;28;20206;-76
2021/04/02 15:11:59;;;;;;;8.17;7.37;;;5.00;96.30;;;;;;4974727;28;20661;-77
2021/04/02 15:14:25;;;;;;;9.20;7.83;;;5.20;96.30;;;;;;4974968;28;20277;-78
2021/04/02 15:16:51;;;;;;;7.90;7.17;;;5.50;96.30;;;;;;4974521;28;20417;-78
2021/04/02 15:19:16;;;;;;;8.10;7.40;;;5.80;96.30;;;;;;4974884;28;20421;-78
2021/04/02 15:21:42;;;;;;;7.93;7.23;;;5.90;96.30;;;;;;4974047;28;20561;-78
2021/04/02 15:24:08;;;;;;;7.60;6.90;;;6.40;96.30;;;;;;4973873;28;20587;-77
2021/04/02 15:26:33;;;;;;;8.50;6.50;;;6.70;96.30;;;;;;4975224;28;20185;-78
2021/04/02 15:28:59;;;;;;;6.20;5.27;;;6.80;96.30;;;;;;4973518;28;20715;-78
2021/04/02 15:31:25;;;;;;;7.70;5.27;;;7.00;96.30;;;;;;4974419;28;20248;-78
2021/04/02 15:33:50;;;;;;;6.77;5.37;;;7.00;96.30;;;;;;4974833;28;20418;-78
2021/04/02 15:36:16;;;;;;;7.17;5.63;;;7.00;96.30;;;;;;4975165;28;20178;-79
2021/04/02 15:38:41;;;;;;;10.97;5.00;;;6.80;96.30;;;;;;4974434;28;20622;-78
2021/04/02 15:41:07;;;;;;;6.00;5.50;;;6.70;96.30;;;;;;4974838;28;20202;-79
2021/04/02 15:43:32;;;;;;;5.70;5.10;;;6.50;96.30;;;;;;4974781;28;20179;-80
2021/04/02 15:45:59;;;;;;;9.23;5.50;;;6.50;96.30;;;;;;4973442;28;20177;-79
2021/04/02 15:48:25;;;;;;;5.83;5.30;;;6.20;96.30;;;;;;4973885;28;20217;-78
2021/04/02 15:50:50;;;;;;;7.00;6.30;;;5.90;96.30;;;;;;4973367;28;20429;-79
2021/04/02 15:53:16;;;;;;;6.27;5.77;;;5.90;96.30;;;;;;4974646;28;20178;-79
2021/04/02 15:55:42;;;;;;;6.90;6.30;;;5.60;96.30;;;;;;4973693;28;20179;-82
2021/04/02 15:58:07;;;;;;;6.93;6.23;;;5.60;96.30;;;;;;4973902;28;20665;-78
2021/04/02 16:00:33;;;;;;;7.73;6.77;;;5.90;96.30;;;;;;4974483;28;20197;-78
2021/04/02 16:03:00;;;;;;;7.60;6.90;;;6.10;96.30;;;;;;4974675;28;20807;-77
2021/04/02 16:05:26;;;;;;;7.73;6.93;;;6.20;96.30;;;;;;4973968;28;20193;-78
2021/04/02 16:07:53;;;;;;;7.60;6.80;;;6.30;96.30;;;;;;4973241;28;20433;-79
2021/04/02 16:10:21;;;;;;;9.13;7.07;;;6.60;96.30;;;;;;4974835;28;20465;-79
2021/04/02 16:12:46;;;;;;;6.90;6.20;;;6.80;96.30;;;;;;4974891;28;20923;-79
2021/04/02 16:15:14;;;;;;;6.83;6.23;;;6.70;96.30;;;;;;4974194;28;20422;-78
2021/04/02 16:17:39;;;;;;;6.93;6.33;;;6.60;96.30;;;;;;4972931;28;20180;-78
2021/04/02 16:20:07;;;;;;;9.00;7.13;;;6.60;96.30;;;;;;4973438;28;20422;-77
2021/04/02 16:22:33;;;;;;;5.93;5.23;;;6.30;96.30;;;;;;4976029;28;20202;-78
2021/04/02 16:24:58;;;;;;;6.17;5.60;;;6.00;96.30;;;;;;4975763;28;20505;-78
2021/04/02 16:27:24;;;;;;;5.70;5.30;;;5.90;96.30;;;;;;4976779;28;20186;-78
2021/04/02 16:29:50;;;;;;;7.97;7.17;;;5.70;96.30;;;;;;4974603;28;20823;-78
2021/04/02 16:32:15;;;;;;;5.93;5.43;;;5.60;96.30;;;;;;4974632;28;20441;-78
2021/04/02 16:34:41;;;;;;;5.47;5.07;;;5.60;96.30;;;;;;4976417;28;20237;-77
2021/04/02 16:37:07;;;;;;;7.87;5.97;;;5.60;96.30;;;;;;4975457;28;20167;-77
2021/04/02 16:39:32;;;;;;;5.27;4.87;;;5.60;96.30;;;;;;4975043;28;20643;-76
2021/04/02 16:41:58;;;;;;;5.77;5.27;;;5.50;96.30;;;;;;4976083;28;20300;-77
2021/04/02 16:44:23;;;;;;;5.70;5.00;;;5.50;96.30;;;;;;4976243;28;20233;-76
2021/04/02 16:46:50;;;;;;;5.73;5.23;;;5.50;96.30;;;;;;4974240;28;20178;-78
2021/04/02 16:49:15;;;;;;;6.00;5.50;;;5.40;96.30;;;;;;4975570;28;20546;-76
2021/04/02 16:51:43;;;;;;;5.77;5.20;;;5.40;96.30;;;;;;4975964;28;20425;-79
2021/04/02 16:54:09;;;;;;;7.00;6.07;;;5.40;96.30;;;;;;4973781;28;20178;-77